createdAt,value
2018-04-07T00:01:38.031Z,9.70
2018-04-07T00:04:05.577Z,9.80
2018-04-07T00:06:33.059Z,9.70
2018-04-07T00:09:00.639Z,9.60
2018-04-07T00:11:29.312Z,9.70
2018-04-07T00:13:56.831Z,9.70
2018-04-07T00:16:24.314Z,9.60
2018-04-07T00:18:51.836Z,9.50
2018-04-07T00:21:19.338Z,9.40
2018-04-07T00:23:46.852Z,9.40
2018-04-07T00:26:14.336Z,9.60
2018-04-07T00:28:42.619Z,9.30
2018-04-07T00:31:10.883Z,9.00
2018-04-07T00:33:38.392Z,9.00
2018-04-07T00:36:06.676Z,8.50
2018-04-07T00:38:34.946Z,8.30
2018-04-07T00:41:02.472Z,8.30
2018-04-07T00:43:29.996Z,8.50
2018-04-07T00:45:57.475Z,8.60
2018-04-07T00:48:25.751Z,9.10
2018-04-07T00:50:53.262Z,9.00
2018-04-07T00:53:20.750Z,9.00
2018-04-07T00:55:48.262Z,9.00
2018-04-07T00:58:15.768Z,9.10
2018-04-07T01:00:44.062Z,9.20
2018-04-07T01:03:11.543Z,9.10
2018-04-07T01:05:39.052Z,9.20
2018-04-07T01:08:06.563Z,9.20
2018-04-07T01:10:34.079Z,9.10
2018-04-07T01:13:01.567Z,9.20
2018-04-07T01:15:29.085Z,9.10
2018-04-07T01:17:56.563Z,9.10
2018-04-07T01:20:24.076Z,9.10
2018-04-07T01:22:51.573Z,9.10
2018-04-07T01:25:19.083Z,9.10
2018-04-07T01:27:46.569Z,9.00
2018-04-07T01:30:14.074Z,9.00
2018-04-07T01:32:41.571Z,9.10
2018-04-07T01:35:09.811Z,9.20
2018-04-07T01:37:37.288Z,9.20
2018-04-07T01:40:04.935Z,9.20
2018-04-07T01:42:32.430Z,9.10
2018-04-07T01:44:59.923Z,9.10
2018-04-07T01:47:27.437Z,9.10
2018-04-07T01:49:54.924Z,9.00
2018-04-07T01:52:22.432Z,9.00
2018-04-07T01:54:49.912Z,9.00
2018-04-07T01:57:17.463Z,8.90
2018-04-07T01:59:44.934Z,8.90
2018-04-07T02:02:12.447Z,8.90
2018-04-07T02:04:40.731Z,8.90
2018-04-07T02:07:09.023Z,8.80
2018-04-07T02:09:37.270Z,8.80
2018-04-07T02:12:04.784Z,8.70
2018-04-07T02:14:32.271Z,8.70
2018-04-07T02:16:59.791Z,8.60
2018-04-07T02:19:27.268Z,8.60
2018-04-07T02:21:54.819Z,8.50
2018-04-07T02:24:22.299Z,8.50
2018-04-07T02:26:49.805Z,8.60
2018-04-07T02:29:17.272Z,8.60
2018-04-07T02:31:45.563Z,8.60
2018-04-07T02:34:13.809Z,8.70
2018-04-07T02:36:41.300Z,8.70
2018-04-07T02:39:08.827Z,8.60
2018-04-07T02:41:36.307Z,8.60
2018-04-07T02:44:03.823Z,8.70
2018-04-07T02:46:31.305Z,8.70
2018-04-07T02:48:59.587Z,8.50
2018-04-07T02:51:27.071Z,8.50
2018-04-07T02:53:55.349Z,8.50
2018-04-07T02:56:22.827Z,8.50
2018-04-07T02:58:51.116Z,8.40
2018-04-07T03:01:19.356Z,8.40
2018-04-07T03:03:46.900Z,8.40
2018-04-07T03:06:14.344Z,8.40
2018-04-07T03:08:41.863Z,8.50
2018-04-07T03:11:09.355Z,8.50
2018-04-07T03:13:37.447Z,8.40
2018-04-07T03:16:04.922Z,8.40
2018-04-07T03:18:32.462Z,8.30
2018-04-07T03:20:59.940Z,8.30
2018-04-07T03:23:27.418Z,8.30
2018-04-07T03:25:54.954Z,8.30
2018-04-07T03:28:22.418Z,8.30
2018-04-07T03:30:49.928Z,8.20
2018-04-07T03:33:17.405Z,8.30
2018-04-07T03:35:44.928Z,8.20
2018-04-07T03:38:13.168Z,8.30
2018-04-07T03:40:40.681Z,8.30
2018-04-07T03:43:08.928Z,8.30
2018-04-07T03:45:36.464Z,8.30
2018-04-07T03:48:03.945Z,8.30
2018-04-07T03:50:31.462Z,8.20
2018-04-07T03:52:59.733Z,8.00
2018-04-07T03:55:27.268Z,8.00
2018-04-07T03:57:54.751Z,8.00
2018-04-07T04:00:22.284Z,8.10
2018-04-07T04:02:50.532Z,8.00
2018-04-07T04:05:18.040Z,8.00
2018-04-07T04:07:46.282Z,8.10
2018-04-07T04:10:13.797Z,8.10
2018-04-07T04:12:42.044Z,8.00
2018-04-07T04:15:09.576Z,8.00
2018-04-07T04:17:37.052Z,8.10
2018-04-07T04:20:04.527Z,8.00
2018-04-07T04:22:32.035Z,8.00
2018-04-07T04:24:59.511Z,8.00
2018-04-07T04:27:27.050Z,8.00
2018-04-07T04:29:54.534Z,8.00
2018-04-07T04:32:22.045Z,7.90
2018-04-07T04:34:50.299Z,7.90
2018-04-07T04:37:17.811Z,7.90
2018-04-07T04:39:46.054Z,7.90
2018-04-07T04:42:13.555Z,7.90
2018-04-07T04:44:41.037Z,7.90
2018-04-07T04:47:08.545Z,7.90
2018-04-07T04:49:36.016Z,7.80
2018-04-07T04:52:03.536Z,7.70
2018-04-07T04:54:31.019Z,7.60
2018-04-07T04:56:58.535Z,7.60
2018-04-07T04:59:26.062Z,7.50
2018-04-07T05:01:53.567Z,7.40
2018-04-07T05:04:21.047Z,7.30
2018-04-07T05:06:48.530Z,7.20
2018-04-07T05:09:16.039Z,7.20
2018-04-07T05:11:43.526Z,7.30
2018-04-07T05:14:11.091Z,7.40
2018-04-07T05:16:38.573Z,7.50
2018-04-07T05:19:06.084Z,7.60
2018-04-07T05:21:33.566Z,7.70
2018-04-07T05:24:01.075Z,7.80
2018-04-07T05:26:28.544Z,7.90
2018-04-07T05:28:56.845Z,8.00
2018-04-07T05:31:25.154Z,8.10
2018-04-07T05:33:52.656Z,8.10
2018-04-07T05:36:20.130Z,8.20
2018-04-07T05:38:47.642Z,8.20
2018-04-07T05:41:15.892Z,8.40
2018-04-07T05:43:43.395Z,8.40
2018-04-07T05:46:10.875Z,8.40
2018-04-07T05:48:39.219Z,8.60
2018-04-07T05:51:06.694Z,8.50
2018-04-07T05:53:34.199Z,8.50
2018-04-07T05:56:01.673Z,8.60
2018-04-07T05:58:29.960Z,8.70
2018-04-07T06:00:57.429Z,8.70
2018-04-07T06:03:24.992Z,8.80
2018-04-07T06:05:52.512Z,8.90
2018-04-07T06:08:19.999Z,9.00
2018-04-07T06:10:48.275Z,9.20
2018-04-07T06:13:15.763Z,9.20
2018-04-07T06:15:43.276Z,9.30
2018-04-07T06:18:11.522Z,9.60
2018-04-07T06:20:39.030Z,9.60
2018-04-07T06:23:06.511Z,9.70
2018-04-07T06:25:34.787Z,9.90
2018-04-07T06:28:02.280Z,9.90
2018-04-07T06:30:29.823Z,10.00
2018-04-07T06:32:57.319Z,10.20
2018-04-07T06:35:25.564Z,10.40
2018-04-07T06:37:53.103Z,10.40
2018-04-07T06:40:20.619Z,10.60
2018-04-07T06:42:48.099Z,10.80
2018-04-07T06:45:15.619Z,10.90
2018-04-07T06:47:43.107Z,11.10
2018-04-07T06:50:10.630Z,11.20
2018-04-07T06:52:38.883Z,15.30
2018-04-07T06:55:06.436Z,15.30
2018-04-07T06:57:34.658Z,18.00
2018-04-07T07:00:02.175Z,17.90
2018-04-07T07:02:29.676Z,19.40
2018-04-07T07:04:57.158Z,20.00
2018-04-07T07:07:24.692Z,20.70
2018-04-07T07:09:52.167Z,21.60
2018-04-07T07:12:19.682Z,20.80
2018-04-07T07:14:47.168Z,21.20
2018-04-07T07:17:14.683Z,21.30
2018-04-07T07:19:42.170Z,20.70
2018-04-07T07:22:09.717Z,21.40
2018-04-07T07:24:37.204Z,21.90
2018-04-07T07:27:04.727Z,21.00
2018-04-07T07:29:32.221Z,21.50
2018-04-07T07:32:00.500Z,22.60
2018-04-07T07:34:27.984Z,22.60
2018-04-07T07:36:55.500Z,22.20
2018-04-07T07:39:23.003Z,23.20
2018-04-07T07:41:50.519Z,23.20
2018-04-07T07:44:18.001Z,22.80
2018-04-07T07:46:45.570Z,22.00
2018-04-07T07:49:13.789Z,22.00
2018-04-07T07:51:41.306Z,22.00
2018-04-07T07:54:08.838Z,21.70
2018-04-07T07:56:36.322Z,22.80
2018-04-07T07:59:03.839Z,22.40
2018-04-07T08:01:31.321Z,23.60
2018-04-07T08:03:58.847Z,23.00
2018-04-07T08:06:26.331Z,21.90
2018-04-07T08:08:53.851Z,21.80
2018-04-07T08:11:21.343Z,22.50
2018-04-07T08:13:48.864Z,23.00
2018-04-07T08:16:16.350Z,23.80
2018-04-07T08:18:43.867Z,23.50
2018-04-07T08:21:12.119Z,24.70
2018-04-07T08:23:39.655Z,24.70
2018-04-07T08:26:07.169Z,25.80
2018-04-07T08:28:34.764Z,26.60
2018-04-07T08:31:03.027Z,25.40
2018-04-07T08:33:30.509Z,25.40
2018-04-07T08:35:58.038Z,26.00
2018-04-07T08:38:25.599Z,25.40
2018-04-07T08:40:53.139Z,25.10
2018-04-07T08:43:21.433Z,27.20
2018-04-07T08:45:48.951Z,27.20
2018-04-07T08:48:17.308Z,27.90
2018-04-07T08:50:45.591Z,26.10
2018-04-07T08:53:13.159Z,26.10
2018-04-07T08:55:41.516Z,25.90
2018-04-07T08:58:09.003Z,25.80
2018-04-07T09:00:36.523Z,26.00
2018-04-07T09:03:04.022Z,26.50
2018-04-07T09:05:31.609Z,27.20
2018-04-07T09:07:59.108Z,27.60
2018-04-07T09:10:26.629Z,28.10
2018-04-07T09:13:05.993Z,28.30
2018-04-07T09:15:34.049Z,27.50
2018-04-07T09:18:01.557Z,26.60
2018-04-07T09:20:29.115Z,26.10
2018-04-07T09:22:56.597Z,25.80
2018-04-07T09:25:24.117Z,26.30
2018-04-07T09:27:52.387Z,26.80
2018-04-07T09:30:19.871Z,26.80
2018-04-07T09:32:48.156Z,25.90
2018-04-07T09:35:16.395Z,25.90
2018-04-07T09:37:43.926Z,25.90
2018-04-07T09:40:11.427Z,25.80
2018-04-07T09:42:38.946Z,26.50
2018-04-07T09:45:06.455Z,26.80
2018-04-07T09:47:33.995Z,26.20
2018-04-07T09:50:01.484Z,25.90
2018-04-07T09:52:29.773Z,26.40
2018-04-07T09:54:58.031Z,25.90
2018-04-07T09:57:25.559Z,25.80
2018-04-07T09:59:53.053Z,25.40
2018-04-07T10:02:20.582Z,25.80
2018-04-07T10:04:48.099Z,25.40
2018-04-07T10:07:15.629Z,25.60
2018-04-07T10:09:43.136Z,26.60
2018-04-07T10:12:10.694Z,26.80
2018-04-07T10:14:38.178Z,26.20
2018-04-07T10:17:05.707Z,26.10
2018-04-07T10:19:33.189Z,26.10
2018-04-07T10:22:00.675Z,26.60
2018-04-07T10:24:28.196Z,26.30
2018-04-07T10:26:55.694Z,26.20
2018-04-07T10:29:23.974Z,26.50
2018-04-07T10:31:52.228Z,26.40
2018-04-07T10:34:19.751Z,26.40
2018-04-07T10:36:48.013Z,26.90
2018-04-07T10:39:15.589Z,26.90
2018-04-07T10:41:43.095Z,27.00
2018-04-07T10:44:10.623Z,26.50
2018-04-07T10:46:38.124Z,25.50
2018-04-07T10:49:05.644Z,25.60
2018-04-07T10:51:33.130Z,25.70
2018-04-07T10:54:00.663Z,25.40
2018-04-07T10:56:28.162Z,24.70
2018-04-07T10:58:55.730Z,24.90
2018-04-07T11:01:23.219Z,25.10
2018-04-07T11:03:50.702Z,24.10
2018-04-07T11:06:19.095Z,22.30
2018-04-07T11:08:47.359Z,21.90
2018-04-07T11:11:18.729Z,21.90
2018-04-07T11:13:50.244Z,21.60
2018-04-07T11:16:18.064Z,21.40
2018-04-07T11:18:45.551Z,21.40
2018-04-07T11:21:18.052Z,21.20
2018-04-07T11:23:45.898Z,21.30
2018-04-07T11:26:13.428Z,21.40
2018-04-07T11:28:42.171Z,21.50
2018-04-07T11:31:09.699Z,21.50
2018-04-07T11:33:37.622Z,21.50
2018-04-07T11:36:05.135Z,21.30
2018-04-07T11:38:33.383Z,21.40
2018-04-07T11:41:00.911Z,21.40
2018-04-07T11:43:28.388Z,21.40
2018-04-07T11:45:55.956Z,21.50
2018-04-07T11:48:23.442Z,21.50
2018-04-07T11:50:50.955Z,21.60
2018-04-07T11:53:18.483Z,21.60
2018-04-07T11:55:45.983Z,21.50
2018-04-07T11:58:13.500Z,21.60
2018-04-07T12:00:41.760Z,21.60
2018-04-07T12:03:09.286Z,21.60
2018-04-07T12:05:36.814Z,21.40
2018-04-07T12:08:05.126Z,21.70
2018-04-07T12:10:32.623Z,21.60
2018-04-07T12:13:01.799Z,21.70
2018-04-07T12:15:29.295Z,21.60
2018-04-07T12:17:56.828Z,21.50
2018-04-07T12:20:24.308Z,21.60
2018-04-07T12:22:52.607Z,21.80
2018-04-07T12:25:20.861Z,21.80
2018-04-07T12:27:48.373Z,21.80
2018-04-07T12:30:15.928Z,21.90
2018-04-07T12:32:44.197Z,22.00
2018-04-07T12:35:11.719Z,22.00
2018-04-07T12:37:39.271Z,22.20
2018-04-07T12:40:06.756Z,22.10
2018-04-07T12:42:34.303Z,22.10
2018-04-07T12:45:02.576Z,22.20
2018-04-07T12:47:30.067Z,22.20
2018-04-07T12:49:58.351Z,22.20
2018-04-07T12:52:25.835Z,22.30
2018-04-07T12:54:54.119Z,22.30
2018-04-07T12:57:22.376Z,22.50
2018-04-07T12:59:49.928Z,22.40
2018-04-07T13:02:17.423Z,22.60
2018-04-07T13:04:44.962Z,22.60
2018-04-07T13:07:12.450Z,22.70
2018-04-07T13:09:39.971Z,22.90
2018-04-07T13:12:08.262Z,22.90
2018-04-07T13:14:36.551Z,23.00
2018-04-07T13:17:04.811Z,23.10
2018-04-07T13:19:32.331Z,23.00
2018-04-07T13:21:59.833Z,23.10
2018-04-07T13:24:27.356Z,23.10
2018-04-07T13:26:55.598Z,23.20
2018-04-07T13:29:23.105Z,23.20
2018-04-07T13:31:51.394Z,23.40
2018-04-07T13:34:18.911Z,23.30
2018-04-07T13:36:46.395Z,23.40
2018-04-07T13:39:13.920Z,23.50
2018-04-07T13:41:42.184Z,23.60
2018-04-07T13:44:09.706Z,23.60
2018-04-07T13:46:37.235Z,23.60
2018-04-07T13:49:04.763Z,23.50
2018-04-07T13:51:32.282Z,23.50
2018-04-07T13:53:59.766Z,23.50
2018-04-07T13:56:27.289Z,23.60
2018-04-07T13:58:54.829Z,23.60
2018-04-07T14:01:22.428Z,23.70
2018-04-07T14:03:49.931Z,23.70
2018-04-07T14:06:17.446Z,23.70
2018-04-07T14:08:44.928Z,23.80
2018-04-07T14:11:12.478Z,23.80
2018-04-07T14:13:39.981Z,23.90
2018-04-07T14:16:07.515Z,23.90
2018-04-07T14:18:35.030Z,23.90
2018-04-07T14:21:02.571Z,23.90
2018-04-07T14:23:30.062Z,23.90
2018-04-07T14:25:57.547Z,24.00
2018-04-07T14:28:25.199Z,23.80
2018-04-07T14:30:52.686Z,23.90
2018-04-07T14:33:20.170Z,23.70
2018-04-07T14:35:47.690Z,23.70
2018-04-07T14:38:15.223Z,23.80
2018-04-07T14:40:42.699Z,23.90
2018-04-07T14:43:10.232Z,24.00
2018-04-07T14:45:37.755Z,24.00
2018-04-07T14:48:05.271Z,23.90
2018-04-07T14:50:32.760Z,23.90
2018-04-07T14:53:00.299Z,23.80
2018-04-07T14:55:27.789Z,23.70
2018-04-07T14:57:55.315Z,23.60
2018-04-07T15:00:23.587Z,23.60
2018-04-07T15:02:51.116Z,23.50
2018-04-07T15:05:18.607Z,23.60
2018-04-07T15:07:46.154Z,23.60
2018-04-07T15:10:14.399Z,23.60
2018-04-07T15:12:41.891Z,23.60
2018-04-07T15:15:10.183Z,23.70
2018-04-07T15:17:37.689Z,23.60
2018-04-07T15:20:05.294Z,23.70
2018-04-07T15:22:32.807Z,23.70
2018-04-07T15:25:00.323Z,23.70
2018-04-07T15:27:27.804Z,23.70
2018-04-07T15:29:55.315Z,23.70
2018-04-07T15:32:22.798Z,23.80
2018-04-07T15:34:50.291Z,23.70
2018-04-07T15:37:17.845Z,23.70
2018-04-07T15:39:45.371Z,23.70
2018-04-07T15:42:12.848Z,23.70
2018-04-07T15:44:40.375Z,23.70
2018-04-07T15:47:07.940Z,23.70
2018-04-07T15:49:35.427Z,23.70
2018-04-07T15:52:02.944Z,23.60
2018-04-07T15:54:31.193Z,23.50
2018-04-07T15:56:58.719Z,23.50
2018-04-07T15:59:26.213Z,23.50
2018-04-07T16:01:53.726Z,23.60
2018-04-07T16:04:21.250Z,23.50
2018-04-07T16:06:48.832Z,23.50
2018-04-07T16:09:16.547Z,23.40
2018-04-07T16:11:44.164Z,23.40
2018-04-07T16:14:11.671Z,23.40
2018-04-07T16:16:39.227Z,23.40
2018-04-07T16:19:06.716Z,23.50
2018-04-07T16:21:34.840Z,23.40
2018-04-07T16:24:02.330Z,23.40
2018-04-07T16:26:29.900Z,23.40
2018-04-07T16:28:58.176Z,23.40
2018-04-07T16:31:26.467Z,23.50
2018-04-07T16:33:54.715Z,23.50
2018-04-07T16:36:22.228Z,23.40
2018-04-07T16:38:50.467Z,23.40
2018-04-07T16:41:17.983Z,23.40
2018-04-07T16:43:46.232Z,23.40
2018-04-07T16:46:13.759Z,23.40
2018-04-07T16:48:42.012Z,23.50
2018-04-07T16:51:09.535Z,23.50
2018-04-07T16:53:37.111Z,23.50
2018-04-07T16:56:04.598Z,23.40
2018-04-07T16:58:32.114Z,23.40
2018-04-07T17:00:59.617Z,23.30
2018-04-07T17:03:27.144Z,23.30
2018-04-07T17:05:54.649Z,23.20
2018-04-07T17:08:22.164Z,23.00
2018-04-07T17:10:49.648Z,22.90
2018-04-07T17:13:17.173Z,22.70
2018-04-07T17:15:44.668Z,22.60
2018-04-07T17:18:12.213Z,22.40
2018-04-07T17:20:40.455Z,22.10
2018-04-07T17:23:07.988Z,22.10
2018-04-07T17:25:35.499Z,22.00
2018-04-07T17:28:03.012Z,21.90
2018-04-07T17:30:30.511Z,21.80
2018-04-07T17:32:58.003Z,21.80
2018-04-07T17:35:25.542Z,21.70
2018-04-07T17:37:53.028Z,21.60
2018-04-07T17:40:20.551Z,21.50
2018-04-07T17:42:48.798Z,21.30
2018-04-07T17:45:16.332Z,21.30
2018-04-07T17:47:43.823Z,21.10
2018-04-07T17:50:11.333Z,21.10
2018-04-07T17:52:38.812Z,21.00
2018-04-07T17:55:06.336Z,20.90
2018-04-07T17:57:33.819Z,20.80
2018-04-07T18:00:01.336Z,20.90
2018-04-07T18:02:28.836Z,20.80
2018-04-07T18:04:56.352Z,20.60
2018-04-07T18:07:23.830Z,20.50
2018-04-07T18:09:51.344Z,20.30
2018-04-07T18:12:18.827Z,20.20
2018-04-07T18:14:46.344Z,20.10
2018-04-07T18:17:13.824Z,20.00
2018-04-07T18:19:41.363Z,19.90
2018-04-07T18:22:08.843Z,19.90
2018-04-07T18:24:36.372Z,19.80
2018-04-07T18:27:03.887Z,19.70
2018-04-07T18:29:31.394Z,19.80
2018-04-07T18:31:59.672Z,19.30
2018-04-07T18:34:27.160Z,19.30
2018-04-07T18:36:55.436Z,19.00
2018-04-07T18:39:22.920Z,19.00
2018-04-07T18:41:51.212Z,18.80
2018-04-07T18:44:19.461Z,18.60
2018-04-07T18:46:47.013Z,18.60
2018-04-07T18:49:15.262Z,18.30
2018-04-07T18:51:42.830Z,18.30
2018-04-07T18:54:11.070Z,17.90
2018-04-07T18:56:38.619Z,17.90
2018-04-07T18:59:06.135Z,17.80
2018-04-07T19:01:33.655Z,17.70
2018-04-07T19:04:01.136Z,17.60
2018-04-07T19:06:28.711Z,17.50
2018-04-07T19:08:56.198Z,17.50
2018-04-07T19:11:23.683Z,17.50
2018-04-07T19:13:51.199Z,17.50
2018-04-07T19:16:19.454Z,17.40
2018-04-07T19:18:47.011Z,17.40
2018-04-07T19:21:14.502Z,17.40
2018-04-07T19:23:42.016Z,17.40
2018-04-07T19:26:09.515Z,17.50
2018-04-07T19:28:37.065Z,17.40
2018-04-07T19:31:04.572Z,17.40
2018-04-07T19:33:32.111Z,17.30
2018-04-07T19:35:59.626Z,17.30
2018-04-07T19:38:27.156Z,17.30
2018-04-07T19:40:54.656Z,17.40
2018-04-07T19:43:22.196Z,17.30
2018-04-07T19:45:49.720Z,17.20
2018-04-07T19:48:17.237Z,17.10
2018-04-07T19:50:44.720Z,17.10
2018-04-07T19:53:13.008Z,16.80
2018-04-07T19:55:40.507Z,16.80
2018-04-07T19:58:08.030Z,16.80
2018-04-07T20:00:35.551Z,16.80
2018-04-07T20:03:03.048Z,16.70
2018-04-07T20:05:31.326Z,16.60
2018-04-07T20:07:58.886Z,16.60
2018-04-07T20:10:26.416Z,16.50
2018-04-07T20:12:53.919Z,16.60
2018-04-07T20:15:21.429Z,16.50
2018-04-07T20:17:49.699Z,16.30
2018-04-07T20:20:17.243Z,16.30
2018-04-07T20:22:44.742Z,16.20
2018-04-07T20:25:12.263Z,16.20
2018-04-07T20:27:39.747Z,16.20
2018-04-07T20:30:07.274Z,16.10
2018-04-07T20:32:35.523Z,15.90
2018-04-07T20:35:03.024Z,15.90
2018-04-07T20:37:30.539Z,15.80
2018-04-07T20:39:58.066Z,15.70
2018-04-07T20:42:27.040Z,15.60
2018-04-07T20:44:54.554Z,15.40
2018-04-07T20:47:23.679Z,15.30
2018-04-07T20:49:51.952Z,15.20
2018-04-07T20:52:20.237Z,15.10
2018-04-07T20:54:47.767Z,15.00
2018-04-07T20:57:15.293Z,15.00
2018-04-07T20:59:42.826Z,15.00
2018-04-07T21:02:10.354Z,15.00
2018-04-07T21:04:37.907Z,15.00
2018-04-07T21:07:05.419Z,14.80
2018-04-07T21:09:32.903Z,14.70
2018-04-07T21:12:00.431Z,14.60
2018-04-07T21:14:28.674Z,14.40
2018-04-07T21:16:56.186Z,14.40
2018-04-07T21:19:24.435Z,14.40
2018-04-07T21:21:51.964Z,14.40
2018-04-07T21:24:19.456Z,14.30
2018-04-07T21:26:46.983Z,14.30
2018-04-07T21:29:15.245Z,14.30
2018-04-07T21:31:42.732Z,14.30
2018-04-07T21:34:10.274Z,14.30
2018-04-07T21:36:37.862Z,14.20
2018-04-07T21:39:06.213Z,14.30
2018-04-07T21:41:33.700Z,14.20
2018-04-07T21:44:01.241Z,14.20
2018-04-07T21:46:28.723Z,14.30
2018-04-07T21:48:56.238Z,14.40
2018-04-07T21:51:23.732Z,14.50
2018-04-07T21:53:52.019Z,14.60
2018-04-07T21:56:20.307Z,14.50
2018-04-07T21:58:48.606Z,14.40
2018-04-07T22:01:16.858Z,14.30
2018-04-07T22:03:44.371Z,14.30
2018-04-07T22:06:22.843Z,14.10
2018-04-07T22:08:50.363Z,14.10
2018-04-07T22:11:17.907Z,14.00
2018-04-07T22:13:45.396Z,14.00
2018-04-07T22:16:12.880Z,14.00
2018-04-07T22:18:41.135Z,13.90
2018-04-07T22:21:08.658Z,13.90
2018-04-07T22:23:36.151Z,13.90
2018-04-07T22:26:03.668Z,13.90
2018-04-07T22:28:31.176Z,13.80
2018-04-07T22:30:58.680Z,13.70
2018-04-07T22:33:26.172Z,13.60
2018-04-07T22:35:53.693Z,13.60
2018-04-07T22:38:21.938Z,13.60
2018-04-07T22:40:49.454Z,13.60
2018-04-07T22:43:16.947Z,13.50
2018-04-07T22:45:44.469Z,13.50
2018-04-07T22:48:12.730Z,13.30
2018-04-07T22:50:40.261Z,13.30
2018-04-07T22:53:07.755Z,13.20
2018-04-07T22:55:35.314Z,13.20
2018-04-07T22:58:02.814Z,13.20
2018-04-07T23:00:30.298Z,13.20
2018-04-07T23:02:58.587Z,13.10
2018-04-07T23:05:26.090Z,13.00
2018-04-07T23:07:53.614Z,12.90
2018-04-07T23:10:21.099Z,12.90
2018-04-07T23:12:48.625Z,12.90
2018-04-07T23:15:16.108Z,12.80
2018-04-07T23:17:43.634Z,12.70
2018-04-07T23:20:11.878Z,12.60
2018-04-07T23:22:39.402Z,12.60
2018-04-07T23:25:06.949Z,12.60
2018-04-07T23:27:34.435Z,12.70
2018-04-07T23:30:01.920Z,12.70
2018-04-07T23:32:29.437Z,12.60
2018-04-07T23:34:56.947Z,12.60
2018-04-07T23:37:25.239Z,12.60
2018-04-07T23:39:53.491Z,12.70
2018-04-07T23:42:21.008Z,12.60
2018-04-07T23:44:48.492Z,12.70
2018-04-07T23:47:16.018Z,12.60
2018-04-07T23:49:43.506Z,12.60
2018-04-07T23:52:11.759Z,12.70
2018-04-07T23:54:39.290Z,12.60
2018-04-07T23:57:06.778Z,12.70
2018-04-07T23:59:34.308Z,12.80
